Terminal Aerodrome Forecast
Issued by NWS

Home | Current Version | Previous Version | Text Only | Print | Product List | Glossary On
Versions: 1 2 3 4 5 6 7 8 9 10 11 12 13 14
000
FTUS45 KMSO 061720
TAFSMN
TAF
KSMN 061720Z 0618/0718 VRB04KT P6SM SCT150
     FM062100 02008KT P6SM VCSH BKN050
     FM070200 02012G22KT P6SM -SHRA OVC050
     FM071200 01008KT P6SM VCSH OVC040
      AMD LTD TO CLD VIS AND WIND=

USA.gov is the U.S. government's official web portal to all federal, state and local government web resources and services.